createdAt,value
2024-01-16T00:00:36.391Z,87235.00
2024-01-16T00:01:36.360Z,87234.00
2024-01-16T00:02:36.413Z,87235.00
2024-01-16T00:03:36.419Z,87233.00
2024-01-16T00:04:36.375Z,87236.00
2024-01-16T00:05:36.453Z,87237.00
2024-01-16T00:06:36.416Z,87240.00
2024-01-16T00:07:36.413Z,87243.00
2024-01-16T00:08:36.476Z,87243.00
2024-01-16T00:09:36.440Z,87243.00
2024-01-16T00:10:36.433Z,87243.00
2024-01-16T00:11:36.509Z,87241.00
2024-01-16T00:12:36.514Z,87245.00
2024-01-16T00:13:36.525Z,87244.00
2024-01-16T00:14:36.678Z,87246.00
2024-01-16T00:15:36.605Z,87246.00
2024-01-16T00:16:36.604Z,87249.00
2024-01-16T00:17:36.777Z,87247.00
2024-01-16T00:18:36.733Z,87246.00
2024-01-16T00:19:36.660Z,87246.00
2024-01-16T00:20:36.720Z,87249.00
2024-01-16T00:21:36.657Z,87249.00
2024-01-16T00:22:36.684Z,87249.00
2024-01-16T00:23:36.753Z,87247.00
2024-01-16T00:24:36.716Z,87250.00
2024-01-16T00:25:36.722Z,87251.00
2024-01-16T00:26:36.779Z,87250.00
2024-01-16T00:27:36.785Z,87249.00
2024-01-16T00:28:36.787Z,87247.00
2024-01-16T00:29:36.833Z,87249.00
2024-01-16T00:30:36.774Z,87250.00
2024-01-16T00:31:36.810Z,87249.00
2024-01-16T00:32:36.831Z,87250.00
2024-01-16T00:33:36.893Z,87249.00
2024-01-16T00:34:36.841Z,87246.00
2024-01-16T00:35:36.821Z,87248.00
2024-01-16T00:36:36.811Z,87250.00
2024-01-16T00:37:36.829Z,87254.00
2024-01-16T00:38:36.873Z,87259.00
2024-01-16T00:39:36.847Z,87258.00
2024-01-16T00:40:36.854Z,87259.00
2024-01-16T00:41:37.000Z,87257.00
2024-01-16T00:42:36.881Z,87257.00
2024-01-16T00:43:36.905Z,87259.00
2024-01-16T00:44:36.940Z,87260.00
2024-01-16T00:45:36.919Z,87260.00
2024-01-16T00:46:36.938Z,87264.00
2024-01-16T00:47:37.077Z,87267.00
2024-01-16T00:48:37.019Z,87270.00
2024-01-16T00:49:37.028Z,87271.00
2024-01-16T00:50:36.989Z,87274.00
2024-01-16T00:51:36.980Z,87275.00
2024-01-16T00:52:37.001Z,87276.00
2024-01-16T00:53:37.074Z,87278.00
2024-01-16T00:54:37.020Z,87282.00
2024-01-16T00:55:37.023Z,87284.00
2024-01-16T00:56:37.047Z,87287.00
2024-01-16T00:57:37.033Z,87288.00
2024-01-16T00:58:37.048Z,87287.00
2024-01-16T00:59:37.054Z,87288.00
2024-01-16T01:00:37.032Z,87292.00
2024-01-16T01:01:37.092Z,87291.00
2024-01-16T01:02:37.122Z,87292.00
2024-01-16T01:03:37.101Z,87291.00
2024-01-16T01:04:37.064Z,87293.00
2024-01-16T01:05:37.247Z,87294.00
2024-01-16T01:06:37.064Z,87294.00
2024-01-16T01:07:37.043Z,87297.00
2024-01-16T01:08:37.098Z,87297.00
2024-01-16T01:09:37.065Z,87298.00
2024-01-16T01:10:37.087Z,87298.00
2024-01-16T01:11:37.078Z,87298.00
2024-01-16T01:12:37.063Z,87300.00
2024-01-16T01:13:37.075Z,87300.00
2024-01-16T01:14:37.182Z,87300.00
2024-01-16T01:15:37.077Z,87301.00
2024-01-16T01:16:37.080Z,87302.00
2024-01-16T01:17:37.173Z,87306.00
2024-01-16T01:18:37.177Z,87304.00
2024-01-16T01:19:37.137Z,87303.00
2024-01-16T01:20:37.152Z,87302.00
2024-01-16T01:21:37.132Z,87304.00
2024-01-16T01:22:37.128Z,87305.00
2024-01-16T01:23:37.182Z,87307.00
2024-01-16T01:24:37.164Z,87308.00
2024-01-16T01:25:37.160Z,87311.00
2024-01-16T01:26:37.229Z,87315.00
2024-01-16T01:27:37.172Z,87316.00
2024-01-16T01:28:37.182Z,87318.00
2024-01-16T01:29:37.207Z,87317.00
2024-01-16T01:30:37.242Z,87320.00
2024-01-16T01:31:37.177Z,87319.00
2024-01-16T01:32:37.447Z,87321.00
2024-01-16T01:33:37.252Z,87321.00
2024-01-16T01:34:37.209Z,87321.00
2024-01-16T01:35:37.257Z,87322.00
2024-01-16T01:36:37.212Z,87325.00
2024-01-16T01:37:37.223Z,87326.00
2024-01-16T01:38:37.269Z,87326.00
2024-01-16T01:39:37.229Z,87329.00
2024-01-16T01:40:37.242Z,87330.00
2024-01-16T01:41:37.276Z,87331.00
2024-01-16T01:42:37.253Z,87331.00
2024-01-16T01:43:37.284Z,87329.00
2024-01-16T01:44:37.378Z,87328.00
2024-01-16T01:45:37.302Z,87327.00
2024-01-16T01:46:37.305Z,87327.00
2024-01-16T01:47:37.433Z,87328.00
2024-01-16T01:48:37.381Z,87327.00
2024-01-16T01:49:37.370Z,87330.00
2024-01-16T01:50:37.363Z,87335.00
2024-01-16T01:51:37.335Z,87336.00
2024-01-16T01:52:37.358Z,87338.00
2024-01-16T01:53:37.382Z,87341.00
2024-01-16T01:54:37.345Z,87341.00
2024-01-16T01:55:37.364Z,87342.00
2024-01-16T01:56:37.416Z,87343.00
2024-01-16T01:57:37.377Z,87343.00
2024-01-16T01:58:37.370Z,87346.00
2024-01-16T01:59:37.458Z,87348.00
2024-01-16T02:00:37.393Z,87348.00
2024-01-16T02:01:37.395Z,87353.00
2024-01-16T02:02:37.446Z,87350.00
2024-01-16T02:03:37.478Z,87351.00
2024-01-16T02:04:37.439Z,87351.00
2024-01-16T02:05:37.460Z,87350.00
2024-01-16T02:06:37.422Z,87350.00
2024-01-16T02:07:37.448Z,87350.00
2024-01-16T02:08:37.487Z,87349.00
2024-01-16T02:09:37.463Z,87352.00
2024-01-16T02:10:37.455Z,87353.00
2024-01-16T02:11:37.526Z,87353.00
2024-01-16T02:12:37.473Z,87349.00
2024-01-16T02:13:37.481Z,87348.00
2024-01-16T02:14:37.528Z,87345.00
2024-01-16T02:15:37.498Z,87344.00
2024-01-16T02:16:37.489Z,87346.00
2024-01-16T02:17:37.677Z,87347.00
2024-01-16T02:18:37.541Z,87348.00
2024-01-16T02:19:37.605Z,87349.00
2024-01-16T02:20:37.559Z,87348.00
2024-01-16T02:21:38.429Z,87350.00
2024-01-16T02:22:37.508Z,87349.00
2024-01-16T02:23:37.673Z,87349.00
2024-01-16T02:24:37.539Z,87350.00
2024-01-16T02:25:37.539Z,87350.00
2024-01-16T02:26:37.583Z,87354.00
2024-01-16T02:27:37.566Z,87357.00
2024-01-16T02:28:37.570Z,87362.00
2024-01-16T02:29:37.607Z,87361.00
2024-01-16T02:30:37.636Z,87361.00
2024-01-16T02:31:37.592Z,87360.00
2024-01-16T02:32:37.659Z,87361.00
2024-01-16T02:33:37.627Z,87363.00
2024-01-16T02:34:37.594Z,87364.00
2024-01-16T02:35:37.632Z,87363.00
2024-01-16T02:36:37.600Z,87364.00
2024-01-16T02:37:37.631Z,87362.00
2024-01-16T02:38:37.673Z,87359.00
2024-01-16T02:39:37.630Z,87358.00
2024-01-16T02:40:37.674Z,87358.00
2024-01-16T02:41:37.733Z,87357.00
2024-01-16T02:42:37.734Z,87359.00
2024-01-16T02:43:37.780Z,87362.00
2024-01-16T02:44:37.823Z,87363.00
2024-01-16T02:45:37.830Z,87366.00
2024-01-16T02:46:37.862Z,87365.00
2024-01-16T02:47:37.985Z,87366.00
2024-01-16T02:48:37.917Z,87366.00
2024-01-16T02:49:37.965Z,87367.00
2024-01-16T02:50:37.914Z,87365.00
2024-01-16T02:51:37.909Z,87368.00
2024-01-16T02:52:37.906Z,87369.00
2024-01-16T02:53:37.952Z,87369.00
2024-01-16T02:54:37.932Z,87368.00
2024-01-16T02:55:37.923Z,87369.00
2024-01-16T02:56:37.957Z,87368.00
2024-01-16T02:57:37.918Z,87367.00
2024-01-16T02:58:37.956Z,87370.00
2024-01-16T02:59:38.004Z,87371.00
2024-01-16T03:00:37.956Z,87370.00
2024-01-16T03:01:37.952Z,87372.00
2024-01-16T03:02:38.072Z,87374.00
2024-01-16T03:03:38.442Z,87372.00
2024-01-16T03:04:37.967Z,87372.00
2024-01-16T03:05:38.034Z,87370.00
2024-01-16T03:06:38.068Z,87371.00
2024-01-16T03:07:37.992Z,87370.00
2024-01-16T03:08:39.193Z,87371.00
2024-01-16T03:09:38.545Z,87373.00
2024-01-16T03:10:38.014Z,87373.00
2024-01-16T03:11:38.071Z,87371.00
2024-01-16T03:12:38.003Z,87366.00
2024-01-16T03:13:37.995Z,87363.00
2024-01-16T03:14:38.102Z,87363.00
2024-01-16T03:15:38.019Z,87362.00
2024-01-16T03:16:38.003Z,87366.00
2024-01-16T03:17:38.044Z,87366.00
2024-01-16T03:18:38.145Z,87363.00
2024-01-16T03:19:38.012Z,87363.00
2024-01-16T03:20:38.059Z,87364.00
2024-01-16T03:21:38.016Z,87366.00
2024-01-16T03:22:38.028Z,87368.00
2024-01-16T03:23:38.140Z,87367.00
2024-01-16T03:24:38.029Z,87371.00
2024-01-16T03:25:38.019Z,87370.00
2024-01-16T03:26:38.064Z,87370.00
2024-01-16T03:27:38.039Z,87370.00
2024-01-16T03:28:38.078Z,87372.00
2024-01-16T03:29:38.083Z,87373.00
2024-01-16T03:30:38.143Z,87375.00
2024-01-16T03:31:38.145Z,87375.00
2024-01-16T03:32:38.137Z,87371.00
2024-01-16T03:33:38.149Z,87370.00
2024-01-16T03:34:38.125Z,87371.00
2024-01-16T03:35:38.122Z,87373.00
2024-01-16T03:36:38.098Z,87373.00
2024-01-16T03:37:38.098Z,87372.00
2024-01-16T03:38:38.185Z,87370.00
2024-01-16T03:39:38.161Z,87370.00
2024-01-16T03:40:38.202Z,87371.00
2024-01-16T03:41:38.260Z,87375.00
2024-01-16T03:42:38.257Z,87373.00
2024-01-16T03:43:38.322Z,87375.00
2024-01-16T03:44:38.388Z,87374.00
2024-01-16T03:45:38.366Z,87371.00
2024-01-16T03:46:38.401Z,87372.00
2024-01-16T03:47:38.468Z,87373.00
2024-01-16T03:48:38.510Z,87374.00
2024-01-16T03:49:38.456Z,87372.00
2024-01-16T03:50:38.432Z,87373.00
2024-01-16T03:51:38.405Z,87371.00
2024-01-16T03:52:38.397Z,87370.00
2024-01-16T03:53:38.419Z,87367.00
2024-01-16T03:54:38.426Z,87365.00
2024-01-16T03:55:38.418Z,87367.00
2024-01-16T03:56:38.458Z,87368.00
2024-01-16T03:57:38.416Z,87366.00
2024-01-16T03:58:38.438Z,87363.00
2024-01-16T03:59:38.479Z,87366.00
2024-01-16T04:00:38.517Z,87366.00
2024-01-16T04:01:38.568Z,87367.00
2024-01-16T04:02:38.473Z,87366.00
2024-01-16T04:03:38.534Z,87368.00
2024-01-16T04:04:38.461Z,87370.00
2024-01-16T04:05:38.526Z,87372.00
2024-01-16T04:06:38.504Z,87370.00
2024-01-16T04:07:38.467Z,87368.00
2024-01-16T04:08:38.501Z,87366.00
2024-01-16T04:09:38.483Z,87364.00
2024-01-16T04:10:38.491Z,87367.00
2024-01-16T04:11:38.572Z,87366.00
2024-01-16T04:12:38.515Z,87366.00
2024-01-16T04:13:38.578Z,87367.00
2024-01-16T04:14:38.568Z,87366.00
2024-01-16T04:15:38.560Z,87364.00
2024-01-16T04:16:38.590Z,87367.00
2024-01-16T04:17:38.663Z,87368.00
2024-01-16T04:18:38.768Z,87370.00
2024-01-16T04:19:38.685Z,87367.00
2024-01-16T04:20:38.678Z,87367.00
2024-01-16T04:21:38.632Z,87370.00
2024-01-16T04:22:38.643Z,87371.00
2024-01-16T04:23:38.675Z,87371.00
2024-01-16T04:24:38.695Z,87372.00
2024-01-16T04:25:38.672Z,87370.00
2024-01-16T04:26:46.110Z,87369.00
2024-01-16T04:27:45.900Z,87369.00
2024-01-16T04:28:45.918Z,87369.00
2024-01-16T04:29:45.990Z,87368.00
2024-01-16T04:30:45.971Z,87370.00
2024-01-16T04:31:58.014Z,87373.00
2024-01-16T04:32:58.142Z,87377.00
2024-01-16T04:33:58.111Z,87376.00
2024-01-16T04:34:58.032Z,87375.00
2024-01-16T04:35:58.109Z,87371.00
2024-01-16T04:36:58.025Z,87370.00
2024-01-16T04:37:58.010Z,87371.00
2024-01-16T04:39:00.114Z,87369.00
2024-01-16T04:39:58.008Z,87373.00
2024-01-16T04:40:58.012Z,87375.00
2024-01-16T04:41:58.015Z,87377.00
2024-01-16T04:42:58.001Z,87379.00
2024-01-16T04:43:58.006Z,87378.00
2024-01-16T04:44:57.998Z,87375.00
2024-01-16T04:45:59.257Z,87376.00
2024-01-16T04:46:57.986Z,87377.00
2024-01-16T04:47:58.026Z,87377.00
2024-01-16T04:48:58.142Z,87377.00
2024-01-16T04:49:57.951Z,87381.00
2024-01-16T04:50:58.000Z,87384.00
2024-01-16T04:51:57.931Z,87387.00
2024-01-16T04:52:57.931Z,87390.00
2024-01-16T04:53:57.936Z,87394.00
2024-01-16T04:54:57.935Z,87397.00
2024-01-16T04:55:57.950Z,87400.00
2024-01-16T04:56:57.930Z,87397.00
2024-01-16T04:57:57.932Z,87395.00
2024-01-16T04:58:57.917Z,87392.00
2024-01-16T04:59:57.902Z,87393.00
2024-01-16T05:00:57.940Z,87393.00
2024-01-16T05:01:57.883Z,87390.00
2024-01-16T05:02:57.976Z,87392.00
2024-01-16T05:03:57.933Z,87394.00
2024-01-16T05:04:57.868Z,87393.00
2024-01-16T05:05:57.921Z,87393.00
2024-01-16T05:06:57.823Z,87391.00
2024-01-16T05:07:57.855Z,87391.00
2024-01-16T05:08:57.955Z,87395.00
2024-01-16T05:09:57.809Z,87398.00
2024-01-16T05:10:57.805Z,87398.00
2024-01-16T05:11:57.814Z,87399.00
2024-01-16T05:12:57.819Z,87401.00
2024-01-16T05:13:57.804Z,87401.00
2024-01-16T05:14:57.866Z,87404.00
2024-01-16T05:15:57.803Z,87406.00
2024-01-16T05:16:57.806Z,87405.00
2024-01-16T05:17:57.959Z,87402.00
2024-01-16T05:18:57.847Z,87402.00
2024-01-16T05:19:57.778Z,87400.00
2024-01-16T05:21:00.363Z,87399.00
2024-01-16T05:21:57.792Z,87400.00
2024-01-16T05:22:57.780Z,87398.00
2024-01-16T05:23:57.780Z,87403.00
2024-01-16T05:24:57.775Z,87407.00
2024-01-16T05:25:57.815Z,87407.00
2024-01-16T05:26:57.800Z,87409.00
2024-01-16T05:27:57.761Z,87413.00
2024-01-16T05:28:57.755Z,87408.00
2024-01-16T05:29:57.827Z,87410.00
2024-01-16T05:30:57.896Z,87411.00
2024-01-16T05:31:57.726Z,87412.00
2024-01-16T05:32:57.773Z,87413.00
2024-01-16T05:33:57.828Z,87415.00
2024-01-16T05:34:57.698Z,87417.00
2024-01-16T05:35:57.731Z,87418.00
2024-01-16T05:36:57.693Z,87417.00
2024-01-16T05:37:57.697Z,87415.00
2024-01-16T05:38:57.740Z,87417.00
2024-01-16T05:39:57.692Z,87419.00
2024-01-16T05:40:57.692Z,87421.00
2024-01-16T05:41:57.761Z,87421.00
2024-01-16T05:42:57.680Z,87423.00
2024-01-16T05:43:57.698Z,87422.00
2024-01-16T05:44:57.734Z,87423.00
2024-01-16T05:45:57.727Z,87420.00
2024-01-16T05:46:57.684Z,87419.00
2024-01-16T05:47:57.816Z,87418.00
2024-01-16T05:48:57.866Z,87417.00
2024-01-16T05:49:57.797Z,87415.00
2024-01-16T05:50:57.759Z,87413.00
2024-01-16T05:51:57.715Z,87413.00
2024-01-16T05:52:57.709Z,87413.00
2024-01-16T05:53:57.801Z,87412.00
2024-01-16T05:54:57.776Z,87414.00
2024-01-16T05:55:57.848Z,87417.00
2024-01-16T05:56:57.940Z,87421.00
2024-01-16T05:57:57.888Z,87423.00
2024-01-16T05:58:57.920Z,87422.00
2024-01-16T05:59:57.965Z,87421.00
2024-01-16T06:00:58.021Z,87421.00
2024-01-16T06:01:58.030Z,87421.00
2024-01-16T06:02:58.095Z,87422.00
2024-01-16T06:03:58.139Z,87422.00
2024-01-16T06:04:58.147Z,87422.00
2024-01-16T06:05:58.249Z,87421.00
2024-01-16T06:06:58.306Z,87420.00
2024-01-16T06:07:58.244Z,87419.00
2024-01-16T06:08:58.284Z,87418.00
2024-01-16T06:09:58.314Z,87418.00
2024-01-16T06:10:58.366Z,87418.00
2024-01-16T06:11:58.409Z,87420.00
2024-01-16T06:12:58.429Z,87417.00
2024-01-16T06:13:58.456Z,87418.00
2024-01-16T06:14:58.460Z,87414.00
2024-01-16T06:15:58.515Z,87415.00
2024-01-16T06:16:58.426Z,87414.00
2024-01-16T06:17:58.611Z,87416.00
2024-01-16T06:18:58.513Z,87422.00
2024-01-16T06:19:58.460Z,87421.00
2024-01-16T06:20:58.466Z,87422.00
2024-01-16T06:21:58.429Z,87425.00
2024-01-16T06:22:58.437Z,87427.00
2024-01-16T06:23:58.500Z,87429.00
2024-01-16T06:24:58.468Z,87428.00
2024-01-16T06:25:58.504Z,87425.00
2024-01-16T06:26:58.459Z,87427.00
2024-01-16T06:27:59.820Z,87429.00
2024-01-16T06:28:58.693Z,87429.00
2024-01-16T06:29:58.724Z,87431.00
2024-01-16T06:30:58.713Z,87434.00
2024-01-16T06:31:58.741Z,87436.00
2024-01-16T06:32:58.974Z,87439.00
2024-01-16T06:33:58.750Z,87435.00
2024-01-16T06:34:58.704Z,87443.00
2024-01-16T06:35:58.763Z,87445.00
2024-01-16T06:36:58.712Z,87445.00
2024-01-16T06:37:58.702Z,87445.00
2024-01-16T06:38:58.701Z,87448.00
2024-01-16T06:39:58.689Z,87446.00
2024-01-16T06:40:58.676Z,87445.00
2024-01-16T06:41:58.698Z,87446.00
2024-01-16T06:42:58.680Z,87448.00
2024-01-16T06:43:58.723Z,87447.00
2024-01-16T06:44:58.722Z,87449.00
2024-01-16T06:45:58.694Z,87448.00
2024-01-16T06:46:58.683Z,87449.00
2024-01-16T06:47:58.782Z,87450.00
2024-01-16T06:48:58.762Z,87451.00
2024-01-16T06:49:58.676Z,87450.00
2024-01-16T06:50:58.690Z,87445.00
2024-01-16T06:51:58.673Z,87447.00
2024-01-16T06:52:58.665Z,87445.00
2024-01-16T06:53:58.765Z,87446.00
2024-01-16T06:54:58.666Z,87445.00
2024-01-16T06:55:58.691Z,87455.00
2024-01-16T06:56:58.658Z,87453.00
2024-01-16T06:57:58.621Z,87452.00
2024-01-16T06:58:58.661Z,87454.00
2024-01-16T06:59:58.694Z,87448.00
2024-01-16T07:00:58.736Z,87449.00
2024-01-16T07:01:58.597Z,87453.00
2024-01-16T07:02:58.591Z,87454.00
2024-01-16T07:03:58.578Z,87456.00
2024-01-16T07:05:00.658Z,87455.00
2024-01-16T07:05:58.738Z,87453.00
2024-01-16T07:06:58.515Z,87450.00
2024-01-16T07:07:58.524Z,87454.00
2024-01-16T07:08:58.510Z,87455.00
2024-01-16T07:09:58.487Z,87458.00
2024-01-16T07:10:58.509Z,87458.00
2024-01-16T07:11:58.500Z,87460.00
2024-01-16T07:12:58.461Z,87465.00
2024-01-16T07:13:58.576Z,87462.00
2024-01-16T07:14:58.483Z,87463.00
2024-01-16T07:15:58.418Z,87463.00
2024-01-16T07:16:58.419Z,87462.00
2024-01-16T07:17:58.462Z,87462.00
2024-01-16T07:18:58.419Z,87467.00
2024-01-16T07:19:58.386Z,87468.00
2024-01-16T07:20:58.413Z,87469.00
2024-01-16T07:21:58.371Z,87471.00
2024-01-16T07:22:58.367Z,87469.00
2024-01-16T07:23:58.409Z,87471.00
2024-01-16T07:24:58.363Z,87474.00
2024-01-16T07:25:58.367Z,87479.00
2024-01-16T07:26:58.424Z,87471.00
2024-01-16T07:27:58.376Z,87470.00
2024-01-16T07:28:58.372Z,87470.00
2024-01-16T07:29:58.366Z,87470.00
2024-01-16T07:30:58.474Z,87471.00
2024-01-16T07:31:58.357Z,87474.00
2024-01-16T07:32:58.460Z,87475.00
2024-01-16T07:33:58.408Z,87472.00
2024-01-16T07:34:58.366Z,87474.00
2024-01-16T07:35:58.424Z,87475.00
2024-01-16T07:36:58.337Z,87480.00
2024-01-16T07:37:58.344Z,87483.00
2024-01-16T07:38:58.348Z,87484.00
2024-01-16T07:39:58.685Z,87486.00
2024-01-16T07:40:58.332Z,87482.00
2024-01-16T07:41:58.359Z,87484.00
2024-01-16T07:42:58.328Z,87485.00
2024-01-16T07:43:58.367Z,87484.00
2024-01-16T07:44:58.359Z,87484.00
2024-01-16T07:45:58.293Z,87486.00
2024-01-16T07:46:58.297Z,87484.00
2024-01-16T07:47:58.358Z,87483.00
2024-01-16T07:48:58.320Z,87487.00
2024-01-16T07:49:58.298Z,87489.00
2024-01-16T07:50:58.391Z,87489.00
2024-01-16T07:51:58.274Z,87490.00
2024-01-16T07:52:58.306Z,87492.00
2024-01-16T07:53:58.384Z,87491.00
2024-01-16T07:54:58.353Z,87492.00
2024-01-16T07:55:58.394Z,87493.00
2024-01-16T07:56:58.652Z,87494.00
2024-01-16T07:57:58.455Z,87492.00
2024-01-16T07:58:58.474Z,87492.00
2024-01-16T07:59:58.532Z,87494.00
2024-01-16T08:00:58.584Z,87494.00
2024-01-16T08:01:58.598Z,87496.00
2024-01-16T08:02:58.632Z,87496.00
2024-01-16T08:03:58.700Z,87498.00
2024-01-16T08:04:58.713Z,87496.00
2024-01-16T08:05:58.806Z,87493.00
2024-01-16T08:06:58.828Z,87493.00
2024-01-16T08:07:58.734Z,87494.00
2024-01-16T08:08:58.836Z,87493.00
2024-01-16T08:09:58.783Z,87494.00
2024-01-16T08:10:58.806Z,87493.00
2024-01-16T08:11:58.915Z,87492.00
2024-01-16T08:12:58.851Z,87493.00
2024-01-16T08:13:58.901Z,87494.00
2024-01-16T08:14:58.973Z,87493.00
2024-01-16T08:15:58.954Z,87493.00
2024-01-16T08:16:58.933Z,87493.00
2024-01-16T08:17:59.070Z,87492.00
2024-01-16T08:18:58.997Z,87493.00
2024-01-16T08:19:58.959Z,87489.00
2024-01-16T08:20:59.002Z,87487.00
2024-01-16T08:21:58.987Z,87485.00
2024-01-16T08:22:58.951Z,87486.00
2024-01-16T08:23:59.001Z,87494.00
2024-01-16T08:24:58.967Z,87491.00
2024-01-16T08:25:58.970Z,87490.00
2024-01-16T08:26:59.024Z,87489.00
2024-01-16T08:27:58.964Z,87488.00
2024-01-16T08:28:58.965Z,87486.00
2024-01-16T08:29:59.081Z,87485.00
2024-01-16T08:30:59.042Z,87483.00
2024-01-16T08:31:58.986Z,87481.00
2024-01-16T08:32:59.028Z,87474.00
2024-01-16T08:33:59.232Z,87478.00
2024-01-16T08:34:59.058Z,87480.00
2024-01-16T08:35:59.067Z,87479.00
2024-01-16T08:36:59.019Z,87479.00
2024-01-16T08:37:59.096Z,87480.00
2024-01-16T08:38:59.115Z,87480.00
2024-01-16T08:39:59.098Z,87478.00
2024-01-16T08:40:59.064Z,87478.00
2024-01-16T08:41:59.187Z,87469.00
2024-01-16T08:42:59.052Z,87470.00
2024-01-16T08:43:59.020Z,87470.00
2024-01-16T08:44:59.085Z,87466.00
2024-01-16T08:45:59.065Z,87465.00
2024-01-16T08:46:59.021Z,87467.00
2024-01-16T08:47:59.109Z,87468.00
2024-01-16T08:48:59.047Z,87470.00
2024-01-16T08:49:59.021Z,87468.00
2024-01-16T08:50:58.999Z,87470.00
2024-01-16T08:51:58.953Z,87467.00
2024-01-16T08:52:59.124Z,87468.00
2024-01-16T08:53:59.083Z,87466.00
2024-01-16T08:54:58.955Z,87463.00
2024-01-16T08:55:59.096Z,87463.00
2024-01-16T08:56:58.946Z,87464.00
2024-01-16T08:57:58.957Z,87462.00
2024-01-16T08:58:59.021Z,87463.00
2024-01-16T08:59:58.928Z,87460.00
2024-01-16T09:00:58.909Z,87462.00
2024-01-16T09:01:58.946Z,87460.00
2024-01-16T09:02:59.841Z,87458.00
2024-01-16T09:03:58.913Z,87458.00
2024-01-16T09:04:58.948Z,87458.00
2024-01-16T09:05:59.053Z,87456.00
2024-01-16T09:06:59.225Z,87456.00
2024-01-16T09:07:58.844Z,87455.00
2024-01-16T09:08:58.856Z,87456.00
2024-01-16T09:09:58.830Z,87456.00
2024-01-16T09:10:58.826Z,87456.00
2024-01-16T09:11:58.844Z,87456.00
2024-01-16T09:12:58.826Z,87456.00
2024-01-16T09:14:00.015Z,87456.00
2024-01-16T09:14:58.898Z,87453.00
2024-01-16T09:15:58.971Z,87455.00
2024-01-16T09:16:58.857Z,87455.00
2024-01-16T09:17:58.990Z,87457.00
2024-01-16T09:18:58.936Z,87457.00
2024-01-16T09:19:58.834Z,87456.00
2024-01-16T09:20:58.944Z,87455.00
2024-01-16T09:21:58.810Z,87452.00
2024-01-16T09:22:58.815Z,87453.00
2024-01-16T09:23:58.840Z,87452.00
2024-01-16T09:24:58.768Z,87452.00
2024-01-16T09:25:58.767Z,87455.00
2024-01-16T09:26:58.800Z,87453.00
2024-01-16T09:27:58.741Z,87448.00
2024-01-16T09:28:58.930Z,87450.00
2024-01-16T09:29:58.771Z,87449.00
2024-01-16T09:30:58.857Z,87445.00
2024-01-16T09:31:58.670Z,87447.00
2024-01-16T09:32:58.773Z,87452.00
2024-01-16T09:33:58.756Z,87455.00
2024-01-16T09:34:58.702Z,87457.00
2024-01-16T09:35:58.673Z,87450.00
2024-01-16T09:36:58.701Z,87454.00
2024-01-16T09:37:58.606Z,87454.00
2024-01-16T09:38:58.697Z,87449.00
2024-01-16T09:39:58.607Z,87447.00
2024-01-16T09:40:58.584Z,87450.00
2024-01-16T09:41:58.584Z,87446.00
2024-01-16T09:42:58.519Z,87445.00
2024-01-16T09:43:58.537Z,87441.00
2024-01-16T09:44:58.563Z,87441.00
2024-01-16T09:46:01.037Z,87437.00
2024-01-16T09:46:58.490Z,87431.00
2024-01-16T09:47:58.678Z,87431.00
2024-01-16T09:48:58.539Z,87428.00
2024-01-16T09:49:58.464Z,87426.00
2024-01-16T09:50:58.457Z,87428.00
2024-01-16T09:51:58.429Z,87426.00
2024-01-16T09:53:00.147Z,87423.00
2024-01-16T09:53:58.482Z,87418.00
2024-01-16T09:54:58.431Z,87415.00
2024-01-16T09:55:58.428Z,87414.00
2024-01-16T09:56:58.452Z,87414.00
2024-01-16T09:57:58.386Z,87416.00
2024-01-16T09:58:58.370Z,87418.00
2024-01-16T09:59:58.436Z,87417.00
2024-01-16T10:00:58.366Z,87416.00
2024-01-16T10:01:58.321Z,87415.00
2024-01-16T10:02:58.456Z,87412.00
2024-01-16T10:03:58.400Z,87409.00
2024-01-16T10:04:58.308Z,87408.00
2024-01-16T10:05:58.364Z,87407.00
2024-01-16T10:06:58.333Z,87406.00
2024-01-16T10:07:58.256Z,87408.00
2024-01-16T10:08:58.351Z,87401.00
2024-01-16T10:09:58.250Z,87399.00
2024-01-16T10:10:58.234Z,87399.00
2024-01-16T10:11:58.281Z,87397.00
2024-01-16T10:12:58.203Z,87393.00
2024-01-16T10:13:58.175Z,87389.00
2024-01-16T10:14:58.310Z,87385.00
2024-01-16T10:15:58.187Z,87384.00
2024-01-16T10:16:58.147Z,87381.00
2024-01-16T10:17:58.153Z,87381.00
2024-01-16T10:18:58.217Z,87381.00
2024-01-16T10:19:58.121Z,87380.00
2024-01-16T10:20:58.194Z,87379.00
2024-01-16T10:21:58.077Z,87383.00
2024-01-16T10:22:58.141Z,87382.00
2024-01-16T10:23:58.118Z,87379.00
2024-01-16T10:24:58.103Z,87382.00
2024-01-16T10:25:58.121Z,87377.00
2024-01-16T10:26:58.284Z,87374.00
2024-01-16T10:27:58.170Z,87373.00
2024-01-16T10:28:58.136Z,87375.00
2024-01-16T10:29:58.479Z,87373.00
2024-01-16T10:30:58.214Z,87373.00
2024-01-16T10:31:58.155Z,87373.00
2024-01-16T10:32:58.244Z,87374.00
2024-01-16T10:33:58.200Z,87370.00
2024-01-16T10:34:58.384Z,87369.00
2024-01-16T10:35:58.107Z,87370.00
2024-01-16T10:36:58.059Z,87370.00
2024-01-16T10:37:57.976Z,87370.00
2024-01-16T10:38:57.985Z,87368.00
2024-01-16T10:39:57.960Z,87368.00
2024-01-16T10:40:57.906Z,87370.00
2024-01-16T10:41:57.896Z,87372.00
2024-01-16T10:42:57.900Z,87366.00
2024-01-16T10:43:57.866Z,87367.00
2024-01-16T10:44:57.878Z,87366.00
2024-01-16T10:45:57.929Z,87365.00
2024-01-16T10:46:57.823Z,87363.00
2024-01-16T10:47:57.899Z,87373.00
2024-01-16T10:48:57.834Z,87370.00
2024-01-16T10:49:57.813Z,87370.00
2024-01-16T10:50:57.845Z,87369.00
2024-01-16T10:51:57.781Z,87370.00
2024-01-16T10:52:57.782Z,87368.00
2024-01-16T10:53:57.774Z,87368.00
2024-01-16T10:54:57.759Z,87363.00
2024-01-16T10:55:58.764Z,87359.00
2024-01-16T10:56:57.770Z,87357.00
2024-01-16T10:57:57.757Z,87361.00
2024-01-16T10:58:57.800Z,87361.00
2024-01-16T10:59:57.835Z,87362.00
2024-01-16T11:00:57.783Z,87357.00
2024-01-16T11:01:57.686Z,87362.00
2024-01-16T11:02:57.727Z,87360.00
2024-01-16T11:03:57.751Z,87355.00
2024-01-16T11:04:57.688Z,87356.00
2024-01-16T11:05:57.738Z,87352.00
2024-01-16T11:06:57.749Z,87353.00
2024-01-16T11:07:57.752Z,87354.00
2024-01-16T11:08:57.830Z,87350.00
2024-01-16T11:09:57.773Z,87352.00
2024-01-16T11:10:57.726Z,87351.00
2024-01-16T11:11:57.796Z,87352.00
2024-01-16T11:12:57.699Z,87351.00
2024-01-16T11:13:57.701Z,87348.00
2024-01-16T11:14:57.691Z,87347.00
2024-01-16T11:15:57.666Z,87346.00
2024-01-16T11:16:57.725Z,87345.00
2024-01-16T11:17:57.715Z,87340.00
2024-01-16T11:19:13.487Z,87339.00
2024-01-16T11:20:10.453Z,87337.00
2024-01-16T11:21:05.890Z,87336.00
2024-01-16T11:21:58.677Z,87335.00
2024-01-16T11:22:57.573Z,87332.00
2024-01-16T11:23:57.603Z,87325.00
2024-01-16T11:24:57.567Z,87321.00
2024-01-16T11:25:57.523Z,87322.00
2024-01-16T11:26:57.580Z,87322.00
2024-01-16T11:27:57.506Z,87321.00
2024-01-16T11:28:57.772Z,87322.00
2024-01-16T11:29:57.578Z,87322.00
2024-01-16T11:30:57.526Z,87320.00
2024-01-16T11:32:11.996Z,87322.00
2024-01-16T11:32:58.496Z,87322.00
2024-01-16T11:33:57.573Z,87313.00
2024-01-16T11:34:57.570Z,87309.00
2024-01-16T11:35:57.475Z,87307.00
2024-01-16T11:36:57.740Z,87301.00
2024-01-16T11:37:57.409Z,87303.00
2024-01-16T11:38:57.496Z,87299.00
2024-01-16T11:39:57.497Z,87294.00
2024-01-16T11:40:57.369Z,87289.00
2024-01-16T11:41:57.561Z,87277.00
2024-01-16T11:42:57.448Z,87278.00
2024-01-16T11:43:57.335Z,87280.00
2024-01-16T11:44:57.351Z,87279.00